Time;durP1;ratioP1;P1;durP2;ratioP2;P2;SDS_P1;SDS_P2;PMS_P1;PMS_P2;Temp;Humidity;BMP_temperature;BMP_pressure;BME280_temperature;BME280_humidity;BME280_pressure;Samples;Min_cycle;Max_cycle;Signal;HPM_P1;HPM_P2
2023/04/19 00:01:46;;;;;;;6.50;2.80;;;10.00;99.90;;;;;;5031386;28;20037;-71
2023/04/19 00:04:14;;;;;;;6.20;3.05;;;10.00;99.90;;;;;;5032340;28;20106;-70
2023/04/19 00:06:41;;;;;;;5.63;2.83;;;10.10;99.90;;;;;;5036404;28;20030;-70
2023/04/19 00:09:07;;;;;;;6.68;3.05;;;10.10;99.90;;;;;;5034620;28;20021;-69
2023/04/19 00:11:35;;;;;;;4.57;2.65;;;10.20;99.90;;;;;;5043690;28;20028;-70
2023/04/19 00:14:07;;;;;;;5.25;2.63;;;10.20;99.90;;;;;;5037478;28;20025;-70
2023/04/19 00:16:33;;;;;;;8.77;3.30;;;10.20;99.90;;;;;;5033157;28;20371;-70
2023/04/19 00:18:58;;;;;;;5.53;3.20;;;10.20;99.90;;;;;;5026991;28;20025;-69
2023/04/19 00:21:25;;;;;;;4.82;2.72;;;10.20;99.90;;;;;;5033675;28;20473;-70
2023/04/19 00:23:52;;;;;;;8.48;3.63;;;10.30;99.90;;;;;;5037693;28;20021;-70
2023/04/19 00:26:18;;;;;;;6.95;3.05;;;10.30;99.90;;;;;;5037596;28;20037;-71
2023/04/19 00:28:50;;;;;;;5.50;3.45;;;10.30;99.90;;;;;;5046733;28;20614;-71
2023/04/19 00:31:15;;;;;;;6.72;3.08;;;10.20;99.90;;;;;;5039021;28;20085;-70
2023/04/19 00:33:44;;;;;;;11.57;3.40;;;10.20;99.90;;;;;;5039116;28;20042;-70
2023/04/19 00:36:09;;;;;;;6.05;3.30;;;10.20;99.90;;;;;;5041251;28;20624;-69
2023/04/19 00:38:39;;;;;;;5.50;2.85;;;10.10;99.90;;;;;;5027571;28;20117;-72
2023/04/19 00:41:05;;;;;;;9.27;3.25;;;10.10;99.90;;;;;;5037269;28;20037;-70
2023/04/19 00:43:36;;;;;;;6.68;3.30;;;10.10;99.90;;;;;;5031124;28;20528;-71
2023/04/19 00:46:02;;;;;;;7.25;3.42;;;10.10;99.90;;;;;;5033242;28;20034;-70
2023/04/19 00:48:29;;;;;;;9.85;4.68;;;10.00;99.90;;;;;;5030651;28;20082;-72
2023/04/19 00:50:55;;;;;;;7.75;3.25;;;10.00;99.90;;;;;;5042791;28;20759;-69
2023/04/19 00:53:21;;;;;;;6.68;3.53;;;9.90;99.90;;;;;;5027820;28;20037;-70
2023/04/19 00:55:50;;;;;;;5.85;3.00;;;9.90;99.90;;;;;;5038845;28;20045;-70
2023/04/19 00:58:19;;;;;;;6.70;3.40;;;9.90;99.90;;;;;;5035502;28;20060;-70
2023/04/19 01:00:47;;;;;;;7.15;3.50;;;9.80;99.90;;;;;;5039650;28;20029;-71
2023/04/19 01:03:13;;;;;;;7.93;3.40;;;9.70;99.90;;;;;;5037171;28;20036;-72
2023/04/19 01:05:41;;;;;;;7.93;2.92;;;9.70;99.90;;;;;;5031430;28;20400;-71
2023/04/19 01:08:07;;;;;;;7.97;3.33;;;9.70;99.90;;;;;;5027611;28;20029;-70
2023/04/19 01:10:33;;;;;;;5.10;2.75;;;9.70;99.90;;;;;;5028862;28;20433;-71
2023/04/19 01:12:58;;;;;;;6.47;3.17;;;9.60;99.90;;;;;;5036312;28;20057;-72
2023/04/19 01:15:24;;;;;;;7.57;3.92;;;9.60;99.90;;;;;;5042502;28;20036;-69
2023/04/19 01:17:54;;;;;;;8.45;3.20;;;9.50;99.90;;;;;;5041345;28;20083;-69
2023/04/19 01:20:20;;;;;;;6.53;3.65;;;9.50;99.90;;;;;;5039972;28;20069;-70
2023/04/19 01:22:46;;;;;;;7.47;3.55;;;9.40;99.90;;;;;;5039085;28;20485;-70
2023/04/19 01:25:11;;;;;;;7.13;3.35;;;9.40;99.90;;;;;;5035290;28;20417;-71
2023/04/19 01:27:37;;;;;;;7.30;3.33;;;9.40;99.90;;;;;;5034359;28;20044;-70
2023/04/19 01:30:03;;;;;;;6.18;3.55;;;9.40;99.90;;;;;;5034255;28;20033;-69
2023/04/19 01:32:28;;;;;;;7.32;3.47;;;9.40;99.90;;;;;;5026710;28;20117;-70
2023/04/19 01:34:54;;;;;;;8.10;4.22;;;9.40;99.90;;;;;;5038568;28;20140;-69
2023/04/19 01:37:20;;;;;;;9.65;3.67;;;9.40;99.90;;;;;;5033039;28;20033;-69
2023/04/19 01:39:48;;;;;;;7.47;3.65;;;9.30;99.90;;;;;;5033522;28;20115;-70
2023/04/19 01:42:17;;;;;;;9.77;3.67;;;9.30;99.90;;;;;;5028143;28;20057;-70
2023/04/19 01:44:45;;;;;;;8.48;3.42;;;9.40;99.90;;;;;;5029851;28;20053;-72
2023/04/19 01:47:11;;;;;;;9.20;4.15;;;9.30;99.90;;;;;;5035167;28;20053;-70
2023/04/19 01:49:36;;;;;;;9.15;4.70;;;9.30;99.90;;;;;;5038343;28;20024;-70
2023/04/19 01:52:05;;;;;;;9.27;3.60;;;9.30;99.90;;;;;;5041129;28;20124;-70
2023/04/19 01:54:30;;;;;;;8.38;3.40;;;9.40;99.90;;;;;;5038119;28;20059;-71
2023/04/19 01:57:00;;;;;;;6.65;3.30;;;9.40;99.90;;;;;;5034590;28;20050;-70
2023/04/19 01:59:25;;;;;;;6.15;3.58;;;9.40;99.90;;;;;;5029400;28;20057;-70
2023/04/19 02:01:54;;;;;;;13.07;3.75;;;9.40;99.90;;;;;;5026481;28;20068;-70
2023/04/19 02:04:20;;;;;;;7.55;3.58;;;9.50;99.90;;;;;;5037077;28;20029;-70
2023/04/19 02:06:46;;;;;;;8.63;3.67;;;9.50;99.90;;;;;;5033267;28;20038;-70
2023/04/19 02:09:12;;;;;;;11.63;4.07;;;9.50;99.90;;;;;;5031986;28;20033;-71
2023/04/19 02:11:38;;;;;;;7.22;3.40;;;9.50;99.90;;;;;;5033494;28;20053;-70
2023/04/19 02:14:03;;;;;;;9.38;4.57;;;9.60;99.90;;;;;;5040995;28;20021;-70
2023/04/19 02:16:29;;;;;;;9.25;3.30;;;9.60;99.90;;;;;;5032060;28;20092;-71
2023/04/19 02:18:55;;;;;;;8.35;3.47;;;9.60;99.90;;;;;;5036431;28;20629;-71
2023/04/19 02:21:20;;;;;;;9.48;4.00;;;9.60;99.90;;;;;;5036756;28;20059;-71
2023/04/19 02:23:46;;;;;;;9.18;4.13;;;9.70;99.90;;;;;;5031566;28;20505;-71
2023/04/19 02:26:12;;;;;;;8.43;4.07;;;9.60;99.90;;;;;;5029544;28;20029;-70
2023/04/19 02:28:38;;;;;;;9.23;4.22;;;9.60;99.90;;;;;;5037826;28;20045;-71
2023/04/19 02:31:07;;;;;;;7.20;3.50;;;9.60;99.90;;;;;;5034394;28;20029;-71
2023/04/19 02:33:32;;;;;;;6.18;3.50;;;9.70;99.90;;;;;;5037336;28;20164;-69
2023/04/19 02:35:58;;;;;;;6.20;3.40;;;9.70;99.90;;;;;;5035783;28;20037;-71
2023/04/19 02:38:24;;;;;;;9.98;3.33;;;9.70;99.90;;;;;;5030011;28;20044;-72
2023/04/19 02:40:52;;;;;;;8.07;3.97;;;9.70;99.90;;;;;;5030344;28;20615;-70
2023/04/19 02:43:18;;;;;;;7.55;4.30;;;9.80;99.90;;;;;;5030913;28;20057;-72
2023/04/19 02:45:43;;;;;;;8.00;4.00;;;9.80;99.90;;;;;;5029277;28;20037;-70
2023/04/19 02:48:09;;;;;;;8.63;3.75;;;9.90;99.90;;;;;;5036625;28;20133;-70
2023/04/19 02:50:37;;;;;;;9.60;3.78;;;9.90;99.90;;;;;;5029050;28;20495;-70
2023/04/19 02:53:03;;;;;;;8.45;3.67;;;9.90;99.90;;;;;;5036734;28;20075;-70
2023/04/19 02:55:28;;;;;;;6.57;3.30;;;9.90;99.90;;;;;;5032253;28;20374;-70
2023/04/19 02:57:54;;;;;;;11.45;4.40;;;9.80;99.90;;;;;;5034008;28;20121;-70
2023/04/19 03:00:20;;;;;;;8.80;3.47;;;9.80;99.90;;;;;;5028789;28;20030;-70
2023/04/19 03:02:45;;;;;;;11.25;4.38;;;9.90;99.90;;;;;;5035649;28;20037;-70
2023/04/19 03:05:11;;;;;;;8.32;4.25;;;9.80;99.90;;;;;;5033098;28;20053;-70
2023/04/19 03:07:39;;;;;;;9.02;4.15;;;9.90;99.90;;;;;;5040769;28;20051;-70
2023/04/19 03:10:06;;;;;;;7.45;3.42;;;9.90;99.90;;;;;;5030774;28;20108;-70
2023/04/19 03:12:31;;;;;;;6.38;3.55;;;9.80;99.90;;;;;;5034392;28;20071;-70
2023/04/19 03:15:00;;;;;;;5.65;3.28;;;9.90;99.90;;;;;;5038726;28;20393;-70
2023/04/19 03:17:25;;;;;;;7.90;3.15;;;9.90;99.90;;;;;;5031773;28;20029;-69
2023/04/19 03:19:55;;;;;;;5.90;3.20;;;9.90;99.90;;;;;;5035197;28;20039;-70
2023/04/19 03:22:21;;;;;;;6.90;3.83;;;9.90;99.90;;;;;;5027474;28;20038;-70
2023/04/19 03:24:46;;;;;;;6.38;3.50;;;9.90;99.90;;;;;;5041829;28;20079;-71
2023/04/19 03:27:12;;;;;;;8.38;3.15;;;9.90;99.90;;;;;;5039260;28;20261;-69
2023/04/19 03:29:43;;;;;;;8.23;3.28;;;9.90;99.90;;;;;;5045478;28;20029;-70
2023/04/19 03:32:09;;;;;;;12.18;4.28;;;9.90;99.90;;;;;;5040937;28;20040;-69
2023/04/19 03:34:37;;;;;;;6.57;3.25;;;9.90;99.90;;;;;;5031903;28;20393;-70
2023/04/19 03:37:03;;;;;;;6.90;3.88;;;9.90;99.90;;;;;;5036310;28;20103;-70
2023/04/19 03:39:28;;;;;;;7.55;3.65;;;10.10;99.90;;;;;;5030185;28;20052;-69
2023/04/19 03:42:03;;;;;;;7.88;2.60;;;10.00;99.90;;;;;;5038356;28;20037;-69
2023/04/19 03:44:32;;;;;;;7.03;3.38;;;10.00;99.90;;;;;;5031880;28;20038;-70
2023/04/19 03:46:58;;;;;;;7.20;3.13;;;10.00;99.90;;;;;;5026961;28;20029;-70
2023/04/19 03:49:32;;;;;;;7.53;3.20;;;10.00;99.90;;;;;;5043512;28;20507;-70
2023/04/19 03:51:58;;;;;;;6.10;2.97;;;9.90;99.90;;;;;;5042327;28;20083;-70
2023/04/19 03:54:24;;;;;;;5.70;3.22;;;9.90;99.90;;;;;;5028083;28;20050;-71
2023/04/19 03:56:52;;;;;;;8.25;3.15;;;10.00;99.90;;;;;;5037654;28;20064;-70
2023/04/19 03:59:18;;;;;;;7.03;3.05;;;10.10;99.90;;;;;;5035895;28;20843;-71
2023/04/19 04:01:43;;;;;;;6.90;3.00;;;10.10;99.90;;;;;;5033512;28;20048;-70
2023/04/19 04:04:17;;;;;;;9.13;3.55;;;10.10;99.90;;;;;;5032360;28;20040;-70
2023/04/19 04:06:46;;;;;;;5.72;3.05;;;10.10;99.90;;;;;;5039236;28;20079;-71
2023/04/19 04:09:17;;;;;;;7.63;3.42;;;10.00;99.90;;;;;;5032515;28;20034;-70
2023/04/19 04:11:46;;;;;;;6.55;3.35;;;10.10;99.90;;;;;;5032887;28;20025;-71
2023/04/19 04:14:12;;;;;;;7.70;3.67;;;10.10;99.90;;;;;;5042425;28;20511;-69
2023/04/19 04:16:46;;;;;;;6.40;3.17;;;10.10;99.90;;;;;;5043757;28;20017;-69
2023/04/19 04:19:12;;;;;;;9.07;3.35;;;10.10;99.90;;;;;;5034741;28;20022;-69
2023/04/19 04:21:37;;;;;;;7.00;3.10;;;10.10;99.90;;;;;;5040439;28;20778;-70
2023/04/19 04:24:09;;;;;;;6.75;3.47;;;10.10;99.90;;;;;;5029731;28;20065;-70
2023/04/19 04:26:38;;;;;;;5.47;2.55;;;10.00;99.90;;;;;;5037972;28;20029;-70
2023/04/19 04:29:09;;;;;;;8.35;3.28;;;10.00;99.90;;;;;;5031220;28;20037;-70
2023/04/19 04:31:38;;;;;;;7.35;3.25;;;10.00;99.90;;;;;;5036664;28;20487;-70
2023/04/19 04:34:03;;;;;;;9.13;3.67;;;9.90;99.90;;;;;;5035362;28;20040;-68
2023/04/19 04:36:29;;;;;;;5.25;2.83;;;10.00;99.90;;;;;;5040835;28;20034;-69
2023/04/19 04:38:56;;;;;;;7.00;3.33;;;9.90;99.90;;;;;;5041258;28;20091;-71
2023/04/19 04:41:21;;;;;;;11.43;4.28;;;9.80;99.90;;;;;;5040219;28;20121;-70
2023/04/19 04:43:50;;;;;;;6.93;2.60;;;9.80;99.90;;;;;;5034259;28;20525;-69
2023/04/19 04:46:18;;;;;;;5.93;2.70;;;9.80;99.90;;;;;;5040065;28;20040;-72
2023/04/19 04:48:44;;;;;;;5.20;3.00;;;9.80;99.90;;;;;;5038884;28;20068;-70
2023/04/19 04:51:10;;;;;;;6.05;2.33;;;9.70;99.90;;;;;;5039198;28;20110;-70
2023/04/19 04:53:35;;;;;;;6.55;2.90;;;9.70;99.90;;;;;;5032310;28;20512;-71
2023/04/19 04:56:01;;;;;;;7.13;3.10;;;9.60;99.90;;;;;;5036746;28;20151;-73
2023/04/19 04:58:26;;;;;;;7.00;2.97;;;9.60;99.90;;;;;;5035048;28;20048;-71
2023/04/19 05:00:52;;;;;;;5.20;2.50;;;9.60;99.90;;;;;;5033279;28;20029;-71
2023/04/19 05:03:21;;;;;;;8.07;3.13;;;9.60;99.90;;;;;;5033702;28;20524;-70
2023/04/19 05:05:46;;;;;;;4.28;2.13;;;9.50;99.90;;;;;;5033293;28;20122;-71
2023/04/19 05:08:12;;;;;;;9.75;3.45;;;9.50;99.90;;;;;;5037288;28;20498;-71
2023/04/19 05:10:37;;;;;;;5.63;2.85;;;9.50;99.90;;;;;;5045301;28;20083;-70
2023/04/19 05:13:06;;;;;;;7.05;3.38;;;9.50;99.90;;;;;;5040725;28;20104;-70
2023/04/19 05:15:32;;;;;;;6.40;3.30;;;9.50;99.90;;;;;;5037707;28;20037;-71
2023/04/19 05:17:57;;;;;;;6.60;2.40;;;9.50;99.90;;;;;;5039182;28;20052;-70
2023/04/19 05:20:23;;;;;;;6.72;2.40;;;9.50;99.90;;;;;;5042505;28;20052;-70
2023/04/19 05:22:48;;;;;;;5.15;2.30;;;9.50;99.90;;;;;;5042668;28;20556;-71
2023/04/19 05:25:14;;;;;;;6.68;2.90;;;9.50;99.90;;;;;;5036082;28;20091;-70
2023/04/19 05:27:39;;;;;;;4.88;2.78;;;9.50;99.90;;;;;;5041076;28;20107;-70
2023/04/19 05:30:05;;;;;;;6.22;3.08;;;9.50;99.90;;;;;;5037102;28;20128;-72
2023/04/19 05:32:31;;;;;;;6.50;3.22;;;9.50;99.90;;;;;;5040379;28;20045;-72
2023/04/19 05:34:57;;;;;;;6.50;2.70;;;9.50;99.90;;;;;;5038387;28;20060;-71
2023/04/19 05:37:25;;;;;;;6.38;2.75;;;9.60;99.90;;;;;;5042008;28;20037;-70
2023/04/19 05:39:51;;;;;;;10.88;3.50;;;9.50;99.90;;;;;;5040701;28;20033;-70
2023/04/19 05:42:16;;;;;;;8.45;3.70;;;9.50;99.90;;;;;;5040726;28;20036;-70
2023/04/19 05:44:45;;;;;;;8.40;3.28;;;9.50;99.90;;;;;;5040120;28;20032;-72
2023/04/19 05:47:10;;;;;;;5.90;3.20;;;9.50;99.90;;;;;;5037089;28;20500;-70
2023/04/19 05:49:36;;;;;;;6.90;2.92;;;9.50;99.90;;;;;;5043690;28;20065;-69
2023/04/19 05:52:04;;;;;;;5.75;2.60;;;9.90;99.90;;;;;;5040368;28;20041;-72
2023/04/19 05:54:34;;;;;;;9.98;2.80;;;10.70;99.90;;;;;;5040994;28;20596;-71
2023/04/19 05:57:00;;;;;;;6.80;2.97;;;11.70;99.90;;;;;;5038319;28;20439;-71
2023/04/19 05:59:26;;;;;;;4.97;2.65;;;12.70;99.90;;;;;;5033902;28;20496;-69
2023/04/19 06:01:51;;;;;;;7.03;2.40;;;13.70;99.90;;;;;;5041730;28;20043;-70
2023/04/19 06:04:23;;;;;;;6.70;2.35;;;14.60;99.90;;;;;;5037920;28;20878;-70
2023/04/19 06:06:52;;;;;;;3.97;2.45;;;15.40;99.90;;;;;;5036470;28;20032;-71
2023/04/19 06:09:21;;;;;;;7.05;2.40;;;16.10;99.90;;;;;;5042814;28;20045;-73
2023/04/19 06:11:46;;;;;;;4.40;2.42;;;16.40;99.40;;;;;;5040169;28;20084;-69
2023/04/19 06:14:15;;;;;;;3.97;2.30;;;16.30;98.90;;;;;;5040812;28;20218;-69
2023/04/19 06:16:41;;;;;;;5.15;2.30;;;16.40;98.90;;;;;;5039379;28;20029;-70
2023/04/19 06:19:06;;;;;;;5.35;2.45;;;16.40;98.40;;;;;;5041735;28;20036;-71
2023/04/19 06:21:33;;;;;;;5.55;2.92;;;16.30;98.30;;;;;;5039481;28;20069;-72
2023/04/19 06:24:07;;;;;;;5.15;2.40;;;16.60;98.00;;;;;;5034990;28;20029;-72
2023/04/19 06:26:33;;;;;;;6.47;1.88;;;17.10;97.80;;;;;;5032822;28;20033;-72
2023/04/19 06:28:59;;;;;;;5.38;2.13;;;17.60;96.30;;;;;;5035864;28;20029;-72
2023/04/19 06:31:24;;;;;;;6.43;2.28;;;18.00;95.40;;;;;;5034062;28;20038;-71
2023/04/19 06:33:53;;;;;;;4.55;2.63;;;17.90;95.30;;;;;;5040640;28;20128;-69
2023/04/19 06:36:19;;;;;;;5.63;2.08;;;18.50;93.70;;;;;;5036767;28;20091;-70
2023/04/19 06:38:45;;;;;;;7.05;2.33;;;18.80;93.80;;;;;;5037523;28;20440;-71
2023/04/19 06:41:11;;;;;;;2.45;1.73;;;18.50;93.20;;;;;;5037562;28;20445;-70
2023/04/19 06:43:38;;;;;;;5.80;1.85;;;18.70;93.00;;;;;;5040349;28;20140;-71
2023/04/19 06:46:07;;;;;;;8.25;2.22;;;19.00;92.00;;;;;;5039588;28;20039;-71
2023/04/19 06:48:34;;;;;;;6.32;2.22;;;19.00;92.00;;;;;;5035940;28;20045;-71
2023/04/19 06:50:59;;;;;;;2.97;2.05;;;19.40;91.20;;;;;;5032275;28;20035;-70
2023/04/19 06:53:28;;;;;;;6.15;2.22;;;20.00;91.10;;;;;;5038495;28;20624;-71
2023/04/19 06:56:03;;;;;;;5.70;2.42;;;19.90;90.30;;;;;;5036055;28;20025;-70
2023/04/19 06:58:31;;;;;;;4.93;2.35;;;20.20;88.00;;;;;;5035863;28;20041;-71
2023/04/19 07:00:57;;;;;;;7.38;2.35;;;19.90;88.90;;;;;;5035223;28;20120;-71
2023/04/19 07:03:25;;;;;;;3.60;2.10;;;19.90;87.50;;;;;;5034181;28;20140;-69
2023/04/19 07:05:51;;;;;;;4.28;2.38;;;19.50;87.40;;;;;;5031145;28;20067;-71
2023/04/19 07:08:17;;;;;;;4.75;1.88;;;18.40;89.30;;;;;;5038997;28;20160;-71
2023/04/19 07:10:43;;;;;;;4.18;1.77;;;17.40;90.70;;;;;;5033998;28;20033;-71
2023/04/19 07:13:11;;;;;;;5.22;1.70;;;16.70;91.30;;;;;;5033136;28;20120;-70
2023/04/19 07:15:37;;;;;;;5.68;2.33;;;16.20;92.00;;;;;;5043042;28;20570;-70
2023/04/19 07:18:02;;;;;;;5.53;2.00;;;15.90;91.80;;;;;;5040043;28;20755;-71
2023/04/19 07:20:31;;;;;;;7.93;2.30;;;15.20;92.20;;;;;;5030916;28;20300;-72
2023/04/19 07:22:59;;;;;;;3.65;1.60;;;14.90;92.30;;;;;;5037052;28;20627;-70
2023/04/19 07:25:26;;;;;;;4.30;2.00;;;14.70;92.10;;;;;;5033069;28;20033;-69
2023/04/19 07:27:53;;;;;;;3.03;1.58;;;14.60;93.50;;;;;;5038729;28;20060;-70
2023/04/19 07:30:22;;;;;;;6.10;1.98;;;14.50;92.90;;;;;;5036070;28;20447;-72
2023/04/19 07:32:52;;;;;;;4.80;2.33;;;14.40;93.00;;;;;;5044950;28;20129;-71
2023/04/19 07:35:21;;;;;;;4.40;1.63;;;14.50;92.10;;;;;;5041089;28;20136;-71
2023/04/19 07:37:49;;;;;;;5.20;1.30;;;14.60;92.00;;;;;;5041180;28;20033;-70
2023/04/19 07:40:18;;;;;;;5.65;1.13;;;14.60;91.50;;;;;;5041609;28;20033;-69
2023/04/19 07:42:43;;;;;;;3.47;1.38;;;14.80;90.00;;;;;;5035676;28;20490;-70
2023/04/19 07:45:09;;;;;;;1.63;1.00;;;14.70;90.20;;;;;;5034842;28;20029;-73
2023/04/19 07:47:35;;;;;;;2.25;1.02;;;14.60;90.00;;;;;;5039611;28;20133;-71
2023/04/19 07:50:00;;;;;;;6.32;1.17;;;14.50;89.70;;;;;;5034318;28;20490;-73
2023/04/19 07:52:26;;;;;;;3.65;1.00;;;14.60;88.30;;;;;;5035706;28;20115;-71
2023/04/19 07:54:55;;;;;;;2.80;1.25;;;14.60;88.10;;;;;;5038122;28;20036;-71
2023/04/19 07:57:21;;;;;;;1.58;1.10;;;14.50;88.60;;;;;;5037023;28;20136;-72
2023/04/19 07:59:49;;;;;;;2.70;0.90;;;14.50;88.20;;;;;;5039518;28;20157;-71
2023/04/19 08:02:18;;;;;;;2.67;1.08;;;14.30;88.10;;;;;;5031420;28;20029;-71
2023/04/19 08:04:46;;;;;;;2.90;1.13;;;14.30;88.20;;;;;;5037934;28;20057;-71
2023/04/19 08:07:12;;;;;;;3.40;1.15;;;14.50;88.40;;;;;;5041731;28;20441;-71
2023/04/19 08:09:38;;;;;;;4.78;1.10;;;14.40;88.80;;;;;;5044545;28;20040;-70
2023/04/19 08:12:03;;;;;;;2.10;0.80;;;14.40;87.80;;;;;;5045491;28;20021;-70
2023/04/19 08:14:29;;;;;;;2.20;0.73;;;14.40;87.30;;;;;;5040034;28;20025;-71
2023/04/19 08:16:54;;;;;;;2.22;0.90;;;14.50;87.50;;;;;;5042403;28;20123;-71
2023/04/19 08:19:20;;;;;;;3.72;1.25;;;14.40;87.00;;;;;;5034231;28;20037;-72
2023/04/19 08:21:48;;;;;;;2.30;1.10;;;14.30;87.10;;;;;;5037058;28;20103;-71
2023/04/19 08:24:20;;;;;;;4.68;1.55;;;14.40;87.00;;;;;;5038431;28;20037;-72
2023/04/19 08:26:52;;;;;;;2.42;1.10;;;14.30;87.60;;;;;;5042397;28;20920;-69
2023/04/19 08:29:21;;;;;;;4.47;1.23;;;14.20;86.70;;;;;;5044392;28;20124;-71
2023/04/19 08:31:46;;;;;;;6.60;0.93;;;14.10;86.40;;;;;;5037036;28;20058;-71
2023/04/19 08:34:12;;;;;;;4.68;1.05;;;14.10;87.10;;;;;;5038870;28;20033;-70
2023/04/19 08:36:38;;;;;;;1.80;1.00;;;14.10;88.20;;;;;;5036005;28;20091;-70
2023/04/19 08:39:03;;;;;;;4.05;0.90;;;14.10;86.30;;;;;;5038333;28;20696;-71
2023/04/19 08:41:33;;;;;;;5.68;1.27;;;14.20;87.80;;;;;;5032853;28;20696;-71
2023/04/19 08:44:00;;;;;;;3.08;1.23;;;14.00;86.40;;;;;;5032937;28;20033;-70
2023/04/19 08:46:26;;;;;;;5.28;2.17;;;14.10;86.40;;;;;;5036777;28;20044;-70
2023/04/19 08:48:53;;;;;;;2.63;1.25;;;14.10;86.90;;;;;;5036323;28;20036;-69
2023/04/19 08:51:18;;;;;;;2.22;0.98;;;14.20;87.10;;;;;;5035561;28;20041;-71
2023/04/19 08:53:45;;;;;;;4.78;1.20;;;14.50;85.80;;;;;;5039179;28;20033;-70
2023/04/19 08:56:11;;;;;;;1.30;0.77;;;14.30;84.90;;;;;;5038457;28;20029;-70
2023/04/19 08:58:37;;;;;;;4.88;1.00;;;14.50;84.20;;;;;;5034987;28;20056;-71
2023/04/19 09:01:07;;;;;;;3.42;0.70;;;14.40;85.00;;;;;;5034150;28;20041;-70
2023/04/19 09:03:33;;;;;;;5.75;0.77;;;14.50;82.00;;;;;;5042440;28;20048;-70
2023/04/19 09:06:02;;;;;;;1.83;0.70;;;14.60;81.60;;;;;;5038258;28;20033;-68
2023/04/19 09:08:29;;;;;;;2.30;0.90;;;14.60;80.40;;;;;;5037066;28;20489;-69
2023/04/19 09:10:57;;;;;;;1.83;0.90;;;14.70;81.50;;;;;;5034632;28;20041;-70
2023/04/19 09:13:23;;;;;;;2.30;0.60;;;14.60;80.00;;;;;;5044351;28;20037;-69
2023/04/19 09:16:06;;;;;;;1.95;0.60;;;14.60;79.40;;;;;;5042133;28;20432;-69
2023/04/19 09:18:32;;;;;;;1.08;0.50;;;14.60;79.50;;;;;;5028067;28;20033;-70
2023/04/19 09:21:01;;;;;;;1.58;1.02;;;14.60;81.40;;;;;;5042344;28;20055;-69
2023/04/19 09:23:27;;;;;;;9.45;0.70;;;14.60;82.30;;;;;;5040908;28;20056;-70
2023/04/19 09:26:03;;;;;;;3.78;1.02;;;14.60;80.60;;;;;;5044486;28;20029;-69
2023/04/19 09:28:30;;;;;;;2.28;0.40;;;14.60;78.30;;;;;;5043733;28;20099;-70
2023/04/19 09:30:56;;;;;;;1.63;0.68;;;14.60;78.30;;;;;;5044760;28;20775;-70
2023/04/19 09:33:38;;;;;;;4.30;0.60;;;14.60;78.20;;;;;;5049240;28;20047;-69
2023/04/19 09:36:05;;;;;;;8.73;0.63;;;14.60;79.00;;;;;;5043144;28;20391;-69
2023/04/19 09:38:46;;;;;;;1.00;0.50;;;14.70;78.70;;;;;;5043152;28;20032;-69
2023/04/19 09:41:12;;;;;;;3.28;0.63;;;14.70;77.20;;;;;;5035254;28;20041;-69
2023/04/19 09:43:43;;;;;;;1.65;0.32;;;14.70;78.70;;;;;;5041660;28;20785;-69
2023/04/19 09:46:29;;;;;;;0.75;0.20;;;14.80;77.00;;;;;;5042106;28;20043;-71
2023/04/19 09:49:15;;;;;;;2.60;0.28;;;14.80;76.60;;;;;;5036794;28;20037;-70
2023/04/19 09:51:41;;;;;;;1.15;0.30;;;14.80;75.30;;;;;;5040985;28;20048;-70
2023/04/19 09:54:08;;;;;;;1.00;0.35;;;14.70;76.40;;;;;;5035530;28;20083;-71
2023/04/19 09:56:35;;;;;;;1.65;0.40;;;14.80;75.50;;;;;;5039505;28;20028;-70
2023/04/19 09:59:06;;;;;;;2.80;0.50;;;14.80;75.90;;;;;;5039735;28;20450;-72
2023/04/19 10:01:57;;;;;;;2.53;0.30;;;15.00;77.20;;;;;;5034507;28;20037;-70
2023/04/19 10:04:24;;;;;;;3.08;0.40;;;15.10;75.70;;;;;;5038151;28;20034;-69
2023/04/19 10:06:53;;;;;;;1.65;0.63;;;15.10;77.80;;;;;;5040683;28;20547;-70
2023/04/19 10:09:22;;;;;;;2.50;0.30;;;15.10;76.60;;;;;;5037969;28;20036;-71
2023/04/19 10:11:50;;;;;;;2.90;0.45;;;15.10;76.80;;;;;;5044959;28;20040;-69
2023/04/19 10:14:19;;;;;;;5.15;0.40;;;14.90;76.90;;;;;;5042873;28;20075;-69
2023/04/19 10:16:46;;;;;;;1.40;0.50;;;14.90;76.30;;;;;;5034884;28;20036;-70
2023/04/19 10:19:14;;;;;;;1.77;0.45;;;14.80;76.10;;;;;;5039693;28;20448;-69
2023/04/19 10:21:41;;;;;;;4.43;0.47;;;14.70;77.00;;;;;;5038583;28;20712;-71
2023/04/19 10:24:13;;;;;;;3.97;0.90;;;14.70;76.30;;;;;;5036455;28;20545;-71
2023/04/19 10:27:13;;;;;;;1.58;0.40;;;14.60;75.90;;;;;;5037820;28;20517;-70
2023/04/19 10:30:00;;;;;;;6.80;0.67;;;14.70;77.20;;;;;;5039464;28;20163;-69
2023/04/19 10:32:39;;;;;;;1.40;0.47;;;14.70;76.80;;;;;;5036095;28;20280;-70
2023/04/19 10:35:18;;;;;;;2.72;0.82;;;14.90;78.00;;;;;;5038134;28;20033;-73
2023/04/19 10:38:12;;;;;;;1.33;0.60;;;15.00;78.50;;;;;;5039854;28;20028;-71
2023/04/19 10:40:59;;;;;;;0.93;0.40;;;15.00;76.50;;;;;;5034975;28;20087;-71
2023/04/19 10:43:35;;;;;;;1.50;0.40;;;15.00;77.10;;;;;;5035028;28;20145;-71
2023/04/19 10:46:15;;;;;;;3.10;0.30;;;15.10;78.10;;;;;;5033634;28;20078;-71
2023/04/19 10:48:53;;;;;;;2.00;0.43;;;15.10;77.70;;;;;;5031833;28;20135;-71
2023/04/19 10:51:38;;;;;;;0.60;0.40;;;15.10;77.00;;;;;;5035264;28;20037;-72
2023/04/19 10:54:04;;;;;;;3.28;0.40;;;15.20;76.60;;;;;;5037336;28;20086;-72
2023/04/19 10:56:35;;;;;;;2.13;0.40;;;15.10;77.60;;;;;;5035816;28;20029;-71
2023/04/19 10:59:06;;;;;;;4.05;0.30;;;15.10;77.30;;;;;;5031979;28;20101;-71
2023/04/19 11:01:41;;;;;;;1.73;0.43;;;15.10;78.20;;;;;;5032861;28;20043;-71
2023/04/19 11:04:48;;;;;;;7.80;0.50;;;15.10;76.20;;;;;;5035057;28;20036;-71
2023/04/19 11:07:16;;;;;;;8.13;0.65;;;15.10;75.60;;;;;;5036338;28;20083;-70
2023/04/19 11:09:45;;;;;;;2.40;0.52;;;15.20;76.20;;;;;;5035938;28;20063;-71
2023/04/19 11:12:14;;;;;;;2.70;0.30;;;15.10;77.70;;;;;;5034805;28;20064;-71
2023/04/19 11:14:45;;;;;;;2.67;0.63;;;15.10;76.90;;;;;;5038633;28;20078;-72
2023/04/19 11:17:18;;;;;;;2.92;0.30;;;15.00;76.00;;;;;;5040210;28;20044;-71
2023/04/19 11:19:51;;;;;;;0.45;0.30;;;14.90;75.60;;;;;;5033876;28;20076;-71
2023/04/19 11:22:17;;;;;;;1.35;0.43;;;14.80;74.60;;;;;;5037889;28;20048;-72
2023/04/19 11:24:47;;;;;;;1.35;0.57;;;14.80;74.50;;;;;;5032309;28;20037;-70
2023/04/19 11:27:12;;;;;;;0.95;0.25;;;14.80;73.90;;;;;;5036418;28;20032;-71
2023/04/19 11:29:38;;;;;;;8.43;1.88;;;14.70;75.00;;;;;;5036220;28;20033;-71
2023/04/19 11:32:04;;;;;;;2.92;0.90;;;14.70;73.50;;;;;;5034088;28;20029;-71
2023/04/19 11:34:38;;;;;;;3.70;0.30;;;14.60;74.30;;;;;;5031990;28;20056;-71
2023/04/19 11:37:03;;;;;;;3.58;0.60;;;14.60;73.80;;;;;;5038639;28;20424;-70
2023/04/19 11:39:29;;;;;;;0.60;0.50;;;14.70;73.70;;;;;;5038628;28;20128;-70
2023/04/19 11:41:55;;;;;;;3.10;0.40;;;14.80;71.40;;;;;;5038036;28;20235;-71
2023/04/19 11:44:20;;;;;;;2.72;0.60;;;14.70;72.20;;;;;;5031937;28;20032;-71
2023/04/19 11:47:07;;;;;;;5.05;0.80;;;14.70;72.10;;;;;;5039826;28;20124;-70
2023/04/19 11:49:33;;;;;;;2.05;0.47;;;14.70;73.60;;;;;;5037952;28;20034;-69
2023/04/19 11:52:04;;;;;;;3.70;0.60;;;14.80;72.60;;;;;;5041488;28;20103;-69
2023/04/19 11:54:30;;;;;;;0.82;0.50;;;14.80;71.00;;;;;;5036610;28;20447;-70
2023/04/19 11:57:14;;;;;;;3.38;0.60;;;14.80;72.50;;;;;;5039438;28;20112;-71
2023/04/19 12:00:05;;;;;;;5.80;0.60;;;14.80;71.00;;;;;;5033793;28;20040;-70
2023/04/19 12:02:37;;;;;;;0.88;0.50;;;14.80;72.20;;;;;;5037996;28;20025;-70
2023/04/19 12:05:14;;;;;;;2.22;0.55;;;14.80;71.80;;;;;;5033984;28;20123;-71
2023/04/19 12:07:58;;;;;;;1.55;0.73;;;14.80;72.20;;;;;;5033737;28;20044;-70
2023/04/19 12:10:24;;;;;;;2.72;0.60;;;14.90;72.80;;;;;;5037521;28;20037;-70
2023/04/19 12:12:50;;;;;;;4.32;0.43;;;14.90;70.20;;;;;;5040311;28;20048;-70
2023/04/19 12:15:16;;;;;;;2.75;0.60;;;14.80;69.70;;;;;;5035654;28;20033;-72
2023/04/19 12:18:01;;;;;;;1.65;0.75;;;14.90;70.80;;;;;;5041682;28;20037;-71
2023/04/19 12:20:35;;;;;;;1.00;0.50;;;14.90;69.00;;;;;;5037107;28;20034;-69
2023/04/19 12:23:01;;;;;;;5.57;1.25;;;14.90;70.00;;;;;;5038212;28;20029;-70
2023/04/19 12:25:31;;;;;;;3.00;1.10;;;15.00;68.50;;;;;;5035995;28;20042;-70
2023/04/19 12:27:57;;;;;;;1.65;0.60;;;15.00;70.00;;;;;;5036145;28;20044;-70
2023/04/19 12:30:23;;;;;;;1.17;0.68;;;15.00;68.40;;;;;;5040741;28;20041;-70
2023/04/19 12:32:50;;;;;;;1.38;0.60;;;15.00;68.40;;;;;;5037633;28;20561;-69
2023/04/19 12:35:16;;;;;;;3.28;0.70;;;15.00;67.30;;;;;;5042387;28;20134;-68
2023/04/19 12:37:42;;;;;;;4.20;0.93;;;15.00;66.40;;;;;;5033899;28;20579;-70
2023/04/19 12:40:08;;;;;;;2.20;0.80;;;15.10;67.80;;;;;;5032210;28;20041;-70
2023/04/19 12:42:34;;;;;;;1.67;0.60;;;15.10;66.40;;;;;;5030456;28;20056;-71
2023/04/19 12:45:00;;;;;;;2.53;0.55;;;15.10;65.20;;;;;;5033776;28;20784;-71
2023/04/19 12:47:25;;;;;;;12.13;0.60;;;15.20;66.50;;;;;;5040643;28;20053;-69
2023/04/19 12:49:51;;;;;;;1.55;0.82;;;15.20;66.60;;;;;;5047099;28;20082;-72
2023/04/19 12:52:18;;;;;;;2.67;0.73;;;15.10;65.90;;;;;;5037361;28;20045;-69
2023/04/19 12:54:47;;;;;;;3.10;0.68;;;15.00;66.30;;;;;;5044487;28;20044;-71
2023/04/19 12:57:21;;;;;;;1.23;0.50;;;15.00;66.80;;;;;;5041976;28;20086;-70